Briefing drone pour Arpajon-sur-cere

Rechercher une autre localisation

Conditions de vol :


Nous sommes le : Dimanche 16 mai 2021
Il est 23:52 UTC (01:52 LT)

Lever de soleil : 03:53 UTC (05:53 LT)
Coucher de soleil : 19:39 UTC (21:39 LT)

Météo

L'essentiel des conditions de vol

VIGILANCE MÉTÉO FRANCE - Cantal (15)
Pas de vigilances particulieres
CARTE TEMSI
CARTES DES FRONTS
METAR de LFLW
LFLW 152330Z AUTO 16002KT 9999 -RA OVC007/// ///TCU 11/10 Q1011

Date d'émission: 15/05/2021
Heure d'émission: 23:30 UTC
Vent: 160° pour 2 KT (4 km/h)
Visibilité horizontale: > 10 km
Plafond :
- Couvert à 700ft (213m)
Température: 11 °C
Point de rosée: 10 °C
Humidité: 94%
Pression (QNH): 1011 hPa
Conditions: Faible pluie
Prévision 24h pour Aurillac (1 km)
Vent : 227° pour 3 KT (10 km/h)
Temperature Maxi: 6 °C
Temperature Min: 6 °C
Humidité : 98%
Condition : Pluie modérée



Warning: count(): Parameter must be an array or an object that implements Countable in /homepages/6/d509196549/htdocs/droneoxygene/briefing.php on line 743
WEBCAM POUR ARPAJON-SUR-CERE

Réglementation

Voler en sécurité

CARTES AERONAUTIQUE 1/500.000
CARTES VAC (LFLW)
SUP AIP




Chargement des AIP...
NOTAM (ARPAJON-SUR-CERE + Terrain à proximité / FIR )




Chargement des NOTAMS...
CONTACT PREFECTURE 15


Avertissement : Les données mises à disposition sont indicatives. Oxygène Drone ne pourra être tenu responsable de dégâts causés aux biens et aux personnes.